sensor_id;sensor_type;location;lat;lon;timestamp;P1;durP1;ratioP1;P2;durP2;ratioP2
25511;SDS011;13414;44.534;18.700;2023-07-20T00:20:26;12.77;;;6.78;;
25511;SDS011;13414;44.534;18.700;2023-07-20T00:23:05;8.77;;;5.78;;
25511;SDS011;13414;44.534;18.700;2023-07-20T00:25:42;15.23;;;7.88;;
25511;SDS011;13414;44.534;18.700;2023-07-20T00:28:18;10.38;;;8.27;;
25511;SDS011;13414;44.534;18.700;2023-07-20T01:04:12;13.38;;;7.90;;
25511;SDS011;13414;44.534;18.700;2023-07-20T01:29:25;12.02;;;7.43;;
25511;SDS011;13414;44.534;18.700;2023-07-20T01:32:22;13.05;;;7.35;;
25511;SDS011;13414;44.534;18.700;2023-07-20T01:35:13;13.82;;;7.28;;
25511;SDS011;13414;44.534;18.700;2023-07-20T01:53:09;12.18;;;7.50;;
25511;SDS011;13414;44.534;18.700;2023-07-20T01:55:59;13.05;;;7.57;;
25511;SDS011;13414;44.534;18.700;2023-07-20T01:58:32;19.38;;;8.00;;
25511;SDS011;13414;44.534;18.700;2023-07-20T02:15:40;113.63;;;57.70;;
25511;SDS011;13414;44.534;18.700;2023-07-20T02:17:57;103.50;;;56.47;;
25511;SDS011;13414;44.534;18.700;2023-07-20T02:20:25;118.13;;;61.50;;
25511;SDS011;13414;44.534;18.700;2023-07-20T02:49:43;68.93;;;41.28;;
25511;SDS011;13414;44.534;18.700;2023-07-20T02:53:34;68.47;;;33.60;;
25511;SDS011;13414;44.534;18.700;2023-07-20T02:55:58;50.50;;;31.10;;
25511;SDS011;13414;44.534;18.700;2023-07-20T03:01:37;40.92;;;25.65;;
25511;SDS011;13414;44.534;18.700;2023-07-20T03:04:16;41.90;;;24.33;;
25511;SDS011;13414;44.534;18.700;2023-07-20T03:07:24;35.08;;;20.15;;
25511;SDS011;13414;44.534;18.700;2023-07-20T03:10:45;23.80;;;15.07;;
25511;SDS011;13414;44.534;18.700;2023-07-20T03:56:26;31.23;;;20.35;;
25511;SDS011;13414;44.534;18.700;2023-07-20T04:58:22;20.55;;;14.27;;
25511;SDS011;13414;44.534;18.700;2023-07-20T05:04:37;27.98;;;17.35;;
25511;SDS011;13414;44.534;18.700;2023-07-20T05:07:42;19.88;;;12.88;;
25511;SDS011;13414;44.534;18.700;2023-07-20T05:10:17;21.08;;;11.77;;
25511;SDS011;13414;44.534;18.700;2023-07-20T05:12:52;16.23;;;10.05;;
25511;SDS011;13414;44.534;18.700;2023-07-20T05:15:26;17.77;;;10.40;;
25511;SDS011;13414;44.534;18.700;2023-07-20T05:17:56;13.88;;;9.98;;
25511;SDS011;13414;44.534;18.700;2023-07-20T05:20:28;15.07;;;9.65;;
25511;SDS011;13414;44.534;18.700;2023-07-20T05:22:57;13.65;;;8.48;;
25511;SDS011;13414;44.534;18.700;2023-07-20T05:25:26;13.75;;;9.25;;
25511;SDS011;13414;44.534;18.700;2023-07-20T05:27:54;12.82;;;8.57;;
25511;SDS011;13414;44.534;18.700;2023-07-20T05:30:33;10.10;;;6.95;;
25511;SDS011;13414;44.534;18.700;2023-07-20T05:33:17;12.23;;;7.60;;
25511;SDS011;13414;44.534;18.700;2023-07-20T05:36:00;12.02;;;7.20;;
25511;SDS011;13414;44.534;18.700;2023-07-20T05:38:30;12.77;;;8.50;;
25511;SDS011;13414;44.534;18.700;2023-07-20T05:40:59;15.05;;;12.00;;
25511;SDS011;13414;44.534;18.700;2023-07-20T05:43:30;10.63;;;6.35;;
25511;SDS011;13414;44.534;18.700;2023-07-20T05:46:02;11.60;;;8.27;;
25511;SDS011;13414;44.534;18.700;2023-07-20T05:48:31;14.05;;;5.85;;
25511;SDS011;13414;44.534;18.700;2023-07-20T05:50:59;13.40;;;7.20;;
25511;SDS011;13414;44.534;18.700;2023-07-20T05:53:33;10.65;;;6.78;;
25511;SDS011;13414;44.534;18.700;2023-07-20T05:56:11;9.82;;;7.05;;
25511;SDS011;13414;44.534;18.700;2023-07-20T05:58:40;12.65;;;7.07;;
25511;SDS011;13414;44.534;18.700;2023-07-20T06:01:13;9.93;;;7.03;;
25511;SDS011;13414;44.534;18.700;2023-07-20T06:06:11;10.38;;;6.75;;
25511;SDS011;13414;44.534;18.700;2023-07-20T06:08:40;12.63;;;8.18;;
25511;SDS011;13414;44.534;18.700;2023-07-20T06:11:07;10.57;;;9.32;;
25511;SDS011;13414;44.534;18.700;2023-07-20T06:13:35;9.77;;;6.70;;
25511;SDS011;13414;44.534;18.700;2023-07-20T06:16:05;11.85;;;6.40;;
25511;SDS011;13414;44.534;18.700;2023-07-20T06:18:34;10.88;;;6.85;;
25511;SDS011;13414;44.534;18.700;2023-07-20T06:21:01;12.07;;;7.82;;
25511;SDS011;13414;44.534;18.700;2023-07-20T06:23:29;10.60;;;6.82;;
25511;SDS011;13414;44.534;18.700;2023-07-20T06:25:56;11.32;;;5.85;;
25511;SDS011;13414;44.534;18.700;2023-07-20T06:28:24;11.43;;;6.70;;
25511;SDS011;13414;44.534;18.700;2023-07-20T06:30:51;12.25;;;6.95;;
25511;SDS011;13414;44.534;18.700;2023-07-20T06:33:19;12.32;;;8.45;;
25511;SDS011;13414;44.534;18.700;2023-07-20T06:35:49;10.80;;;6.32;;
25511;SDS011;13414;44.534;18.700;2023-07-20T06:38:18;10.68;;;5.88;;
25511;SDS011;13414;44.534;18.700;2023-07-20T06:40:45;15.52;;;8.40;;
25511;SDS011;13414;44.534;18.700;2023-07-20T06:43:13;10.63;;;5.93;;
25511;SDS011;13414;44.534;18.700;2023-07-20T06:45:40;9.52;;;6.05;;
25511;SDS011;13414;44.534;18.700;2023-07-20T06:48:08;9.27;;;6.13;;
25511;SDS011;13414;44.534;18.700;2023-07-20T06:50:36;12.52;;;7.28;;
25511;SDS011;13414;44.534;18.700;2023-07-20T06:53:05;11.45;;;5.55;;
25511;SDS011;13414;44.534;18.700;2023-07-20T06:55:32;10.90;;;6.20;;
25511;SDS011;13414;44.534;18.700;2023-07-20T06:58:00;14.68;;;8.10;;
25511;SDS011;13414;44.534;18.700;2023-07-20T07:00:28;10.27;;;6.78;;
25511;SDS011;13414;44.534;18.700;2023-07-20T07:02:55;13.55;;;6.72;;
25511;SDS011;13414;44.534;18.700;2023-07-20T07:05:23;14.00;;;6.45;;
25511;SDS011;13414;44.534;18.700;2023-07-20T07:07:51;8.63;;;5.70;;
25511;SDS011;13414;44.534;18.700;2023-07-20T07:10:20;12.10;;;6.22;;
25511;SDS011;13414;44.534;18.700;2023-07-20T07:12:47;11.27;;;7.22;;
25511;SDS011;13414;44.534;18.700;2023-07-20T07:15:15;11.45;;;7.22;;
25511;SDS011;13414;44.534;18.700;2023-07-20T07:17:42;11.30;;;5.43;;
25511;SDS011;13414;44.534;18.700;2023-07-20T07:20:10;15.15;;;6.97;;
25511;SDS011;13414;44.534;18.700;2023-07-20T07:22:37;10.85;;;7.40;;
25511;SDS011;13414;44.534;18.700;2023-07-20T07:25:05;12.80;;;5.85;;
25511;SDS011;13414;44.534;18.700;2023-07-20T07:27:35;12.52;;;7.18;;
25511;SDS011;13414;44.534;18.700;2023-07-20T07:30:02;11.55;;;6.53;;
25511;SDS011;13414;44.534;18.700;2023-07-20T07:32:31;11.57;;;5.50;;
25511;SDS011;13414;44.534;18.700;2023-07-20T07:35:00;7.28;;;5.13;;
25511;SDS011;13414;44.534;18.700;2023-07-20T07:37:28;9.13;;;6.18;;
25511;SDS011;13414;44.534;18.700;2023-07-20T07:39:55;12.95;;;6.05;;
25511;SDS011;13414;44.534;18.700;2023-07-20T07:42:23;12.32;;;6.38;;
25511;SDS011;13414;44.534;18.700;2023-07-20T07:44:52;6.78;;;4.30;;
25511;SDS011;13414;44.534;18.700;2023-07-20T07:47:19;5.07;;;3.50;;
25511;SDS011;13414;44.534;18.700;2023-07-20T07:49:46;6.97;;;4.20;;
25511;SDS011;13414;44.534;18.700;2023-07-20T07:52:15;6.07;;;3.55;;
25511;SDS011;13414;44.534;18.700;2023-07-20T07:54:42;9.98;;;5.13;;
25511;SDS011;13414;44.534;18.700;2023-07-20T07:57:10;7.57;;;3.95;;
25511;SDS011;13414;44.534;18.700;2023-07-20T07:59:39;5.95;;;3.40;;
25511;SDS011;13414;44.534;18.700;2023-07-20T08:02:08;7.38;;;3.88;;
25511;SDS011;13414;44.534;18.700;2023-07-20T08:04:35;9.43;;;4.95;;
25511;SDS011;13414;44.534;18.700;2023-07-20T08:07:04;7.30;;;4.20;;
25511;SDS011;13414;44.534;18.700;2023-07-20T08:09:32;8.10;;;5.65;;
25511;SDS011;13414;44.534;18.700;2023-07-20T08:11:59;10.65;;;4.55;;
25511;SDS011;13414;44.534;18.700;2023-07-20T08:14:27;5.40;;;2.97;;
25511;SDS011;13414;44.534;18.700;2023-07-20T08:16:54;7.47;;;3.00;;
25511;SDS011;13414;44.534;18.700;2023-07-20T08:19:23;6.93;;;3.00;;
25511;SDS011;13414;44.534;18.700;2023-07-20T08:21:51;8.40;;;3.70;;
25511;SDS011;13414;44.534;18.700;2023-07-20T08:24:18;8.80;;;3.58;;
25511;SDS011;13414;44.534;18.700;2023-07-20T08:26:45;10.23;;;3.25;;
25511;SDS011;13414;44.534;18.700;2023-07-20T08:29:13;7.68;;;3.20;;
25511;SDS011;13414;44.534;18.700;2023-07-20T08:31:40;11.25;;;3.38;;
25511;SDS011;13414;44.534;18.700;2023-07-20T08:34:08;9.73;;;4.22;;
25511;SDS011;13414;44.534;18.700;2023-07-20T08:36:37;9.25;;;4.65;;
25511;SDS011;13414;44.534;18.700;2023-07-20T08:39:06;11.75;;;5.45;;
25511;SDS011;13414;44.534;18.700;2023-07-20T08:41:34;11.88;;;4.47;;
25511;SDS011;13414;44.534;18.700;2023-07-20T08:44:02;9.68;;;3.33;;
25511;SDS011;13414;44.534;18.700;2023-07-20T08:46:30;8.75;;;3.72;;
25511;SDS011;13414;44.534;18.700;2023-07-20T08:48:58;7.82;;;3.40;;
25511;SDS011;13414;44.534;18.700;2023-07-20T08:51:29;7.97;;;3.63;;
25511;SDS011;13414;44.534;18.700;2023-07-20T08:53:59;9.30;;;4.47;;
25511;SDS011;13414;44.534;18.700;2023-07-20T08:56:28;9.68;;;3.88;;
25511;SDS011;13414;44.534;18.700;2023-07-20T08:58:58;7.93;;;4.10;;
25511;SDS011;13414;44.534;18.700;2023-07-20T09:01:26;10.05;;;4.38;;
25511;SDS011;13414;44.534;18.700;2023-07-20T09:03:54;11.32;;;4.53;;
25511;SDS011;13414;44.534;18.700;2023-07-20T09:06:22;10.38;;;3.55;;
25511;SDS011;13414;44.534;18.700;2023-07-20T09:08:54;11.30;;;4.03;;
25511;SDS011;13414;44.534;18.700;2023-07-20T09:11:38;18.65;;;11.30;;
25511;SDS011;13414;44.534;18.700;2023-07-20T09:14:21;22.45;;;15.57;;
25511;SDS011;13414;44.534;18.700;2023-07-20T09:16:59;11.25;;;6.22;;
25511;SDS011;13414;44.534;18.700;2023-07-20T09:19:28;22.58;;;16.63;;
25511;SDS011;13414;44.534;18.700;2023-07-20T09:21:55;21.00;;;12.30;;
25511;SDS011;13414;44.534;18.700;2023-07-20T09:24:24;13.23;;;8.90;;
25511;SDS011;13414;44.534;18.700;2023-07-20T09:26:56;12.15;;;5.43;;
25511;SDS011;13414;44.534;18.700;2023-07-20T09:29:23;14.88;;;6.63;;
25511;SDS011;13414;44.534;18.700;2023-07-20T09:32:00;12.98;;;7.10;;
25511;SDS011;13414;44.534;18.700;2023-07-20T09:34:28;13.20;;;4.20;;
25511;SDS011;13414;44.534;18.700;2023-07-20T09:36:57;13.35;;;7.25;;
25511;SDS011;13414;44.534;18.700;2023-07-20T09:39:27;15.20;;;6.07;;
25511;SDS011;13414;44.534;18.700;2023-07-20T09:41:55;12.45;;;5.32;;
25511;SDS011;13414;44.534;18.700;2023-07-20T09:44:28;8.60;;;3.80;;
25511;SDS011;13414;44.534;18.700;2023-07-20T09:46:56;12.07;;;4.65;;
25511;SDS011;13414;44.534;18.700;2023-07-20T09:49:23;10.38;;;3.90;;
25511;SDS011;13414;44.534;18.700;2023-07-20T09:51:50;10.40;;;4.35;;
25511;SDS011;13414;44.534;18.700;2023-07-20T09:54:20;7.75;;;3.67;;
25511;SDS011;13414;44.534;18.700;2023-07-20T09:56:50;8.27;;;3.67;;
25511;SDS011;13414;44.534;18.700;2023-07-20T09:59:18;7.78;;;3.22;;
25511;SDS011;13414;44.534;18.700;2023-07-20T10:01:45;8.02;;;3.55;;
25511;SDS011;13414;44.534;18.700;2023-07-20T10:04:14;8.98;;;3.25;;
25511;SDS011;13414;44.534;18.700;2023-07-20T10:06:50;7.25;;;3.70;;
25511;SDS011;13414;44.534;18.700;2023-07-20T10:09:22;11.70;;;3.78;;
25511;SDS011;13414;44.534;18.700;2023-07-20T10:11:54;9.20;;;3.90;;
25511;SDS011;13414;44.534;18.700;2023-07-20T10:14:27;8.13;;;3.25;;
25511;SDS011;13414;44.534;18.700;2023-07-20T10:17:02;10.18;;;3.80;;
25511;SDS011;13414;44.534;18.700;2023-07-20T10:19:33;8.32;;;3.85;;
25511;SDS011;13414;44.534;18.700;2023-07-20T10:22:10;9.10;;;4.85;;
25511;SDS011;13414;44.534;18.700;2023-07-20T10:24:45;7.47;;;3.77;;
25511;SDS011;13414;44.534;18.700;2023-07-20T10:27:14;9.77;;;4.22;;
25511;SDS011;13414;44.534;18.700;2023-07-20T10:29:42;6.22;;;3.30;;
25511;SDS011;13414;44.534;18.700;2023-07-20T10:32:11;8.82;;;3.85;;
25511;SDS011;13414;44.534;18.700;2023-07-20T10:34:41;9.07;;;6.10;;
25511;SDS011;13414;44.534;18.700;2023-07-20T10:37:08;9.00;;;3.80;;
25511;SDS011;13414;44.534;18.700;2023-07-20T10:39:36;8.10;;;5.03;;
25511;SDS011;13414;44.534;18.700;2023-07-20T10:42:06;6.88;;;4.63;;
25511;SDS011;13414;44.534;18.700;2023-07-20T10:44:35;10.35;;;4.18;;
25511;SDS011;13414;44.534;18.700;2023-07-20T10:47:08;7.22;;;3.50;;
25511;SDS011;13414;44.534;18.700;2023-07-20T10:49:57;5.93;;;3.70;;
25511;SDS011;13414;44.534;18.700;2023-07-20T10:52:25;8.40;;;4.03;;
25511;SDS011;13414;44.534;18.700;2023-07-20T10:54:53;7.82;;;4.30;;
25511;SDS011;13414;44.534;18.700;2023-07-20T10:57:29;6.63;;;3.80;;
25511;SDS011;13414;44.534;18.700;2023-07-20T11:00:09;7.82;;;4.13;;
25511;SDS011;13414;44.534;18.700;2023-07-20T11:02:42;10.27;;;4.50;;
25511;SDS011;13414;44.534;18.700;2023-07-20T11:08:03;6.63;;;3.47;;
25511;SDS011;13414;44.534;18.700;2023-07-20T11:10:32;7.30;;;3.55;;
25511;SDS011;13414;44.534;18.700;2023-07-20T11:15:53;6.35;;;3.60;;
25511;SDS011;13414;44.534;18.700;2023-07-20T11:18:32;6.82;;;3.90;;
25511;SDS011;13414;44.534;18.700;2023-07-20T11:21:01;9.30;;;4.18;;
25511;SDS011;13414;44.534;18.700;2023-07-20T11:23:29;8.85;;;3.80;;
25511;SDS011;13414;44.534;18.700;2023-07-20T11:26:01;8.65;;;3.95;;
25511;SDS011;13414;44.534;18.700;2023-07-20T11:28:29;6.90;;;4.72;;
25511;SDS011;13414;44.534;18.700;2023-07-20T11:30:59;7.78;;;4.38;;
25511;SDS011;13414;44.534;18.700;2023-07-20T11:33:27;7.80;;;5.13;;
25511;SDS011;13414;44.534;18.700;2023-07-20T11:35:55;8.30;;;4.78;;
25511;SDS011;13414;44.534;18.700;2023-07-20T11:38:23;9.18;;;4.72;;
25511;SDS011;13414;44.534;18.700;2023-07-20T11:40:51;12.02;;;6.40;;
25511;SDS011;13414;44.534;18.700;2023-07-20T11:43:18;7.25;;;4.53;;
25511;SDS011;13414;44.534;18.700;2023-07-20T11:45:48;6.85;;;4.63;;
25511;SDS011;13414;44.534;18.700;2023-07-20T11:48:17;5.85;;;3.85;;
25511;SDS011;13414;44.534;18.700;2023-07-20T11:50:48;5.97;;;4.15;;
25511;SDS011;13414;44.534;18.700;2023-07-20T11:53:15;6.80;;;4.85;;
25511;SDS011;13414;44.534;18.700;2023-07-20T11:55:43;5.65;;;4.07;;
25511;SDS011;13414;44.534;18.700;2023-07-20T11:58:12;6.75;;;4.22;;
25511;SDS011;13414;44.534;18.700;2023-07-20T12:00:43;6.63;;;3.80;;
25511;SDS011;13414;44.534;18.700;2023-07-20T12:03:11;6.82;;;4.90;;
25511;SDS011;13414;44.534;18.700;2023-07-20T12:05:40;9.57;;;4.75;;
25511;SDS011;13414;44.534;18.700;2023-07-20T12:08:08;7.65;;;4.10;;
25511;SDS011;13414;44.534;18.700;2023-07-20T12:10:38;5.57;;;4.30;;
25511;SDS011;13414;44.534;18.700;2023-07-20T12:13:09;6.03;;;3.65;;
25511;SDS011;13414;44.534;18.700;2023-07-20T12:15:37;5.07;;;4.07;;
25511;SDS011;13414;44.534;18.700;2023-07-20T12:18:05;5.53;;;4.47;;
25511;SDS011;13414;44.534;18.700;2023-07-20T12:20:33;7.97;;;5.50;;
25511;SDS011;13414;44.534;18.700;2023-07-20T12:23:03;8.98;;;5.60;;
25511;SDS011;13414;44.534;18.700;2023-07-20T12:25:32;8.68;;;5.32;;
25511;SDS011;13414;44.534;18.700;2023-07-20T12:28:01;6.22;;;4.65;;
25511;SDS011;13414;44.534;18.700;2023-07-20T12:30:29;7.30;;;4.13;;
25511;SDS011;13414;44.534;18.700;2023-07-20T12:32:56;6.43;;;4.80;;
25511;SDS011;13414;44.534;18.700;2023-07-20T12:35:24;6.07;;;4.30;;
25511;SDS011;13414;44.534;18.700;2023-07-20T12:37:51;6.35;;;4.90;;
25511;SDS011;13414;44.534;18.700;2023-07-20T12:40:20;7.95;;;4.78;;
25511;SDS011;13414;44.534;18.700;2023-07-20T12:42:48;6.18;;;3.88;;
25511;SDS011;13414;44.534;18.700;2023-07-20T12:45:15;7.57;;;4.38;;
25511;SDS011;13414;44.534;18.700;2023-07-20T12:47:43;6.82;;;4.20;;
25511;SDS011;13414;44.534;18.700;2023-07-20T12:50:10;6.78;;;5.70;;
25511;SDS011;13414;44.534;18.700;2023-07-20T12:52:38;7.63;;;4.30;;
25511;SDS011;13414;44.534;18.700;2023-07-20T12:55:07;6.93;;;4.53;;
25511;SDS011;13414;44.534;18.700;2023-07-20T12:57:37;7.63;;;4.47;;
25511;SDS011;13414;44.534;18.700;2023-07-20T13:00:05;5.80;;;4.13;;
25511;SDS011;13414;44.534;18.700;2023-07-20T13:02:35;6.38;;;4.20;;
25511;SDS011;13414;44.534;18.700;2023-07-20T13:05:03;5.60;;;4.15;;
25511;SDS011;13414;44.534;18.700;2023-07-20T13:07:31;6.55;;;4.20;;
25511;SDS011;13414;44.534;18.700;2023-07-20T13:09:59;8.18;;;4.10;;
25511;SDS011;13414;44.534;18.700;2023-07-20T13:12:28;7.95;;;4.25;;
25511;SDS011;13414;44.534;18.700;2023-07-20T13:14:58;5.43;;;3.70;;
25511;SDS011;13414;44.534;18.700;2023-07-20T13:17:29;5.50;;;4.18;;
25511;SDS011;13414;44.534;18.700;2023-07-20T13:19:56;6.80;;;4.60;;
25511;SDS011;13414;44.534;18.700;2023-07-20T13:22:23;6.88;;;4.25;;
25511;SDS011;13414;44.534;18.700;2023-07-20T13:24:50;5.95;;;4.22;;
25511;SDS011;13414;44.534;18.700;2023-07-20T13:27:19;7.25;;;4.22;;
25511;SDS011;13414;44.534;18.700;2023-07-20T13:29:46;6.30;;;4.20;;
25511;SDS011;13414;44.534;18.700;2023-07-20T13:32:15;26.52;;;20.70;;
25511;SDS011;13414;44.534;18.700;2023-07-20T13:34:43;7.68;;;6.47;;
25511;SDS011;13414;44.534;18.700;2023-07-20T13:37:11;6.88;;;4.68;;
25511;SDS011;13414;44.534;18.700;2023-07-20T13:39:39;5.50;;;4.28;;
25511;SDS011;13414;44.534;18.700;2023-07-20T13:42:10;6.03;;;4.70;;
25511;SDS011;13414;44.534;18.700;2023-07-20T13:44:38;8.27;;;5.88;;
25511;SDS011;13414;44.534;18.700;2023-07-20T13:47:05;6.40;;;4.53;;
25511;SDS011;13414;44.534;18.700;2023-07-20T13:49:37;7.85;;;4.10;;
25511;SDS011;13414;44.534;18.700;2023-07-20T13:52:05;6.38;;;4.20;;
25511;SDS011;13414;44.534;18.700;2023-07-20T13:54:32;5.70;;;3.90;;
25511;SDS011;13414;44.534;18.700;2023-07-20T13:57:00;6.30;;;4.15;;
25511;SDS011;13414;44.534;18.700;2023-07-20T13:59:28;6.68;;;4.20;;
25511;SDS011;13414;44.534;18.700;2023-07-20T14:01:55;5.00;;;3.72;;
25511;SDS011;13414;44.534;18.700;2023-07-20T14:04:22;8.70;;;4.50;;
25511;SDS011;13414;44.534;18.700;2023-07-20T14:06:51;8.10;;;4.32;;
25511;SDS011;13414;44.534;18.700;2023-07-20T14:09:19;6.80;;;4.07;;
25511;SDS011;13414;44.534;18.700;2023-07-20T14:11:46;6.10;;;4.25;;
25511;SDS011;13414;44.534;18.700;2023-07-20T14:14:15;5.55;;;3.80;;
25511;SDS011;13414;44.534;18.700;2023-07-20T14:16:42;6.90;;;4.50;;
25511;SDS011;13414;44.534;18.700;2023-07-20T14:19:10;6.07;;;3.97;;
25511;SDS011;13414;44.534;18.700;2023-07-20T14:21:38;7.97;;;5.20;;
25511;SDS011;13414;44.534;18.700;2023-07-20T14:24:07;11.90;;;4.50;;
25511;SDS011;13414;44.534;18.700;2023-07-20T14:26:34;6.90;;;3.90;;
25511;SDS011;13414;44.534;18.700;2023-07-20T14:29:01;7.38;;;3.92;;
25511;SDS011;13414;44.534;18.700;2023-07-20T14:31:29;6.80;;;4.00;;
25511;SDS011;13414;44.534;18.700;2023-07-20T14:33:57;7.45;;;4.28;;
25511;SDS011;13414;44.534;18.700;2023-07-20T14:36:25;5.90;;;4.00;;
25511;SDS011;13414;44.534;18.700;2023-07-20T14:38:53;7.75;;;4.85;;
25511;SDS011;13414;44.534;18.700;2023-07-20T14:41:22;7.43;;;4.72;;
25511;SDS011;13414;44.534;18.700;2023-07-20T14:43:49;8.15;;;4.68;;
25511;SDS011;13414;44.534;18.700;2023-07-20T14:46:20;5.95;;;4.65;;
25511;SDS011;13414;44.534;18.700;2023-07-20T14:48:54;5.40;;;4.30;;
25511;SDS011;13414;44.534;18.700;2023-07-20T14:51:46;10.18;;;4.68;;
25511;SDS011;13414;44.534;18.700;2023-07-20T14:57:29;6.30;;;4.20;;
25511;SDS011;13414;44.534;18.700;2023-07-20T14:59:59;7.07;;;4.15;;
25511;SDS011;13414;44.534;18.700;2023-07-20T15:02:49;5.00;;;4.38;;
25511;SDS011;13414;44.534;18.700;2023-07-20T15:05:21;6.00;;;3.97;;
25511;SDS011;13414;44.534;18.700;2023-07-20T15:07:51;6.55;;;4.30;;
25511;SDS011;13414;44.534;18.700;2023-07-20T15:10:31;7.68;;;4.35;;
25511;SDS011;13414;44.534;18.700;2023-07-20T15:13:35;7.50;;;4.65;;
25511;SDS011;13414;44.534;18.700;2023-07-20T15:16:03;6.05;;;3.95;;
25511;SDS011;13414;44.534;18.700;2023-07-20T15:21:56;5.43;;;4.05;;
25511;SDS011;13414;44.534;18.700;2023-07-20T15:25:03;8.93;;;4.07;;
25511;SDS011;13414;44.534;18.700;2023-07-20T15:27:48;6.68;;;4.28;;
25511;SDS011;13414;44.534;18.700;2023-07-20T15:30:29;5.25;;;4.10;;
25511;SDS011;13414;44.534;18.700;2023-07-20T15:32:59;7.60;;;4.85;;
25511;SDS011;13414;44.534;18.700;2023-07-20T15:35:37;8.13;;;4.47;;
25511;SDS011;13414;44.534;18.700;2023-07-20T15:38:07;7.38;;;5.15;;
25511;SDS011;13414;44.534;18.700;2023-07-20T15:41:16;7.25;;;4.90;;
25511;SDS011;13414;44.534;18.700;2023-07-20T15:43:46;7.72;;;5.63;;
25511;SDS011;13414;44.534;18.700;2023-07-20T15:49:15;13.52;;;6.13;;
25511;SDS011;13414;44.534;18.700;2023-07-20T15:51:43;11.57;;;6.30;;
25511;SDS011;13414;44.534;18.700;2023-07-20T15:54:15;9.55;;;5.93;;
25511;SDS011;13414;44.534;18.700;2023-07-20T15:56:45;8.38;;;5.30;;
25511;SDS011;13414;44.534;18.700;2023-07-20T15:59:17;10.18;;;5.47;;
25511;SDS011;13414;44.534;18.700;2023-07-20T16:01:49;9.63;;;5.18;;
25511;SDS011;13414;44.534;18.700;2023-07-20T16:04:20;7.75;;;4.50;;
25511;SDS011;13414;44.534;18.700;2023-07-20T16:06:51;9.30;;;5.35;;
25511;SDS011;13414;44.534;18.700;2023-07-20T16:09:18;7.82;;;5.18;;
25511;SDS011;13414;44.534;18.700;2023-07-20T16:11:48;8.40;;;5.30;;
25511;SDS011;13414;44.534;18.700;2023-07-20T16:14:17;8.20;;;4.80;;
25511;SDS011;13414;44.534;18.700;2023-07-20T16:16:45;7.93;;;4.82;;
25511;SDS011;13414;44.534;18.700;2023-07-20T16:19:14;9.52;;;5.05;;
25511;SDS011;13414;44.534;18.700;2023-07-20T16:21:45;9.63;;;5.15;;
25511;SDS011;13414;44.534;18.700;2023-07-20T16:24:13;7.63;;;4.35;;
25511;SDS011;13414;44.534;18.700;2023-07-20T16:26:45;9.43;;;4.40;;
25511;SDS011;13414;44.534;18.700;2023-07-20T16:29:14;10.93;;;5.20;;
25511;SDS011;13414;44.534;18.700;2023-07-20T16:31:43;7.22;;;4.90;;
25511;SDS011;13414;44.534;18.700;2023-07-20T16:34:11;10.38;;;4.95;;
25511;SDS011;13414;44.534;18.700;2023-07-20T16:36:43;9.93;;;5.18;;
25511;SDS011;13414;44.534;18.700;2023-07-20T16:39:11;8.77;;;4.90;;
25511;SDS011;13414;44.534;18.700;2023-07-20T16:41:39;8.45;;;4.57;;
25511;SDS011;13414;44.534;18.700;2023-07-20T16:44:07;10.13;;;5.30;;
25511;SDS011;13414;44.534;18.700;2023-07-20T16:46:36;8.48;;;4.65;;
25511;SDS011;13414;44.534;18.700;2023-07-20T16:49:04;7.82;;;5.03;;
25511;SDS011;13414;44.534;18.700;2023-07-20T16:51:35;7.53;;;4.85;;
25511;SDS011;13414;44.534;18.700;2023-07-20T16:54:03;8.88;;;5.43;;
25511;SDS011;13414;44.534;18.700;2023-07-20T16:56:33;9.95;;;5.55;;
25511;SDS011;13414;44.534;18.700;2023-07-20T16:59:01;9.57;;;4.88;;
25511;SDS011;13414;44.534;18.700;2023-07-20T17:01:29;10.20;;;5.75;;
25511;SDS011;13414;44.534;18.700;2023-07-20T17:04:00;8.30;;;5.85;;
25511;SDS011;13414;44.534;18.700;2023-07-20T17:06:30;9.63;;;5.70;;
25511;SDS011;13414;44.534;18.700;2023-07-20T17:09:00;6.15;;;4.10;;
25511;SDS011;13414;44.534;18.700;2023-07-20T17:11:28;8.00;;;4.82;;
25511;SDS011;13414;44.534;18.700;2023-07-20T17:13:56;12.05;;;5.30;;
25511;SDS011;13414;44.534;18.700;2023-07-20T17:16:25;10.52;;;6.00;;
25511;SDS011;13414;44.534;18.700;2023-07-20T17:18:53;13.18;;;5.57;;
25511;SDS011;13414;44.534;18.700;2023-07-20T17:21:21;12.05;;;5.60;;
25511;SDS011;13414;44.534;18.700;2023-07-20T17:26:30;9.88;;;5.65;;
25511;SDS011;13414;44.534;18.700;2023-07-20T17:28:59;10.68;;;5.10;;
25511;SDS011;13414;44.534;18.700;2023-07-20T17:31:27;7.10;;;4.82;;
25511;SDS011;13414;44.534;18.700;2023-07-20T17:33:55;9.95;;;5.22;;
25511;SDS011;13414;44.534;18.700;2023-07-20T17:36:25;9.48;;;4.65;;
25511;SDS011;13414;44.534;18.700;2023-07-20T17:38:53;8.93;;;5.28;;
25511;SDS011;13414;44.534;18.700;2023-07-20T17:41:25;9.90;;;5.57;;
25511;SDS011;13414;44.534;18.700;2023-07-20T17:43:55;12.88;;;6.28;;
25511;SDS011;13414;44.534;18.700;2023-07-20T17:46:24;11.88;;;6.28;;
25511;SDS011;13414;44.534;18.700;2023-07-20T17:48:52;8.90;;;5.05;;
25511;SDS011;13414;44.534;18.700;2023-07-20T17:51:20;11.85;;;4.85;;
25511;SDS011;13414;44.534;18.700;2023-07-20T17:53:50;9.98;;;5.30;;
25511;SDS011;13414;44.534;18.700;2023-07-20T17:56:18;10.85;;;5.72;;
25511;SDS011;13414;44.534;18.700;2023-07-20T17:58:46;9.88;;;7.03;;
25511;SDS011;13414;44.534;18.700;2023-07-20T18:01:15;9.85;;;5.93;;
25511;SDS011;13414;44.534;18.700;2023-07-20T18:06:44;10.48;;;6.88;;
25511;SDS011;13414;44.534;18.700;2023-07-20T18:09:13;14.43;;;9.73;;
25511;SDS011;13414;44.534;18.700;2023-07-20T18:11:42;14.80;;;8.82;;
25511;SDS011;13414;44.534;18.700;2023-07-20T18:14:10;12.25;;;7.18;;
25511;SDS011;13414;44.534;18.700;2023-07-20T18:16:39;20.08;;;9.50;;
25511;SDS011;13414;44.534;18.700;2023-07-20T18:19:06;15.27;;;8.77;;
25511;SDS011;13414;44.534;18.700;2023-07-20T18:21:34;10.20;;;7.10;;
25511;SDS011;13414;44.534;18.700;2023-07-20T18:24:02;12.40;;;9.63;;
25511;SDS011;13414;44.534;18.700;2023-07-20T18:26:29;11.15;;;6.18;;
25511;SDS011;13414;44.534;18.700;2023-07-20T18:28:57;12.07;;;6.63;;
25511;SDS011;13414;44.534;18.700;2023-07-20T18:31:26;10.30;;;6.32;;
25511;SDS011;13414;44.534;18.700;2023-07-20T18:33:55;10.20;;;4.85;;
25511;SDS011;13414;44.534;18.700;2023-07-20T18:36:23;9.48;;;5.10;;
25511;SDS011;13414;44.534;18.700;2023-07-20T18:38:51;12.70;;;4.70;;
25511;SDS011;13414;44.534;18.700;2023-07-20T18:41:19;8.77;;;4.88;;
25511;SDS011;13414;44.534;18.700;2023-07-20T18:43:48;8.07;;;5.53;;
25511;SDS011;13414;44.534;18.700;2023-07-20T18:46:15;14.38;;;6.38;;
25511;SDS011;13414;44.534;18.700;2023-07-20T18:48:44;9.98;;;6.55;;
25511;SDS011;13414;44.534;18.700;2023-07-20T18:51:13;16.10;;;11.98;;
25511;SDS011;13414;44.534;18.700;2023-07-20T18:53:41;11.10;;;5.72;;
25511;SDS011;13414;44.534;18.700;2023-07-20T18:56:09;17.98;;;12.73;;
25511;SDS011;13414;44.534;18.700;2023-07-20T18:58:36;12.95;;;8.48;;
25511;SDS011;13414;44.534;18.700;2023-07-20T19:01:04;18.98;;;12.45;;
25511;SDS011;13414;44.534;18.700;2023-07-20T19:03:31;13.80;;;9.10;;
25511;SDS011;13414;44.534;18.700;2023-07-20T19:05:59;15.73;;;8.65;;
25511;SDS011;13414;44.534;18.700;2023-07-20T19:08:29;11.80;;;7.78;;
25511;SDS011;13414;44.534;18.700;2023-07-20T19:11:00;14.80;;;8.48;;
25511;SDS011;13414;44.534;18.700;2023-07-20T19:13:29;27.48;;;22.17;;